CES561 ZSPD-YSSY
Flight info
| Callsign | CES561 |
|---|---|
| Flight time | N/A |
| Altitude | 29000 |
| Route | LAMEN/N0479F290 A593 SADLI Y590 ELGEP/N0483F310 Y590 BEDAR Y591 ISPIT Z41 AGIKA G339 OLSAK/N0489F330 G339 SABGU/N0491F320 A339 KEITH/N0493F350 R204 CS Y177 AKROM Y153 GOBAR/N0480F370 Y153 KANKO DCT SULMI DCT OVNOM H652 BOREE |
| Aircraft | A359/H-SDE2E3GHIJ3J4J5LM1ORWXY/LB1D1 |
Departure
| Time | N/A |
|---|---|
| Airport | Shanghai Pudong International Airport (ZSPD) |
Arrival
| Time | 2026-05-06 08:18 |
|---|---|
| Airport | Sydney Kingsford Smith International Airport (YSSY) |
| Time | Latitude | Longitude | Altitude | Speed | Heading |
|---|---|---|---|---|---|
| 2026-05-06 07:41 | -30.07927 | 150.22896 | 41090 ft | 535 kts | 174° |
| 2026-05-06 07:41 | -30.11528 | 150.23982 | 41092 ft | 535 kts | 174° |
| 2026-05-06 07:42 | -30.17515 | 150.25790 | 41090 ft | 535 kts | 174° |
| 2026-05-06 07:42 | -30.24711 | 150.27965 | 41089 ft | 535 kts | 174° |
| 2026-05-06 07:43 | -30.31910 | 150.30145 | 41090 ft | 535 kts | 174° |
| 2026-05-06 07:43 | -30.39104 | 150.32326 | 41084 ft | 534 kts | 174° |
| 2026-05-06 07:44 | -30.46288 | 150.34507 | 41087 ft | 534 kts | 174° |
| 2026-05-06 07:44 | -30.53477 | 150.36693 | 41086 ft | 534 kts | 174° |
| 2026-05-06 07:45 | -30.60667 | 150.38882 | 41094 ft | 534 kts | 173° |
| 2026-05-06 07:45 | -30.67843 | 150.41072 | 41079 ft | 533 kts | 173° |
| 2026-05-06 07:46 | -30.75006 | 150.43261 | 41082 ft | 533 kts | 173° |
| 2026-05-06 07:46 | -30.82143 | 150.45445 | 41074 ft | 533 kts | 173° |
| 2026-05-06 07:47 | -30.89328 | 150.47659 | 41088 ft | 532 kts | 173° |
| 2026-05-06 07:47 | -30.96487 | 150.49854 | 41079 ft | 531 kts | 173° |
| 2026-05-06 07:48 | -31.03617 | 150.52038 | 41075 ft | 531 kts | 173° |
| 2026-05-06 07:48 | -31.10770 | 150.54237 | 41078 ft | 531 kts | 173° |
| 2026-05-06 07:49 | -31.17911 | 150.56438 | 41085 ft | 531 kts | 173° |
| 2026-05-06 07:49 | -31.25064 | 150.58647 | 41082 ft | 531 kts | 173° |
| 2026-05-06 07:50 | -31.32204 | 150.60857 | 41076 ft | 531 kts | 173° |
| 2026-05-06 07:50 | -31.35780 | 150.61965 | 40829 ft | 529 kts | 173° |
| 2026-05-06 07:50 | -31.39287 | 150.63053 | 40230 ft | 529 kts | 172° |
| 2026-05-06 07:51 | -31.42849 | 150.64157 | 39519 ft | 531 kts | 172° |
| 2026-05-06 07:51 | -31.46418 | 150.65263 | 38858 ft | 531 kts | 172° |
| 2026-05-06 07:51 | -31.50011 | 150.66379 | 38114 ft | 531 kts | 172° |
| 2026-05-06 07:51 | -31.53529 | 150.67473 | 37449 ft | 529 kts | 172° |
| 2026-05-06 07:52 | -31.57077 | 150.68578 | 36773 ft | 527 kts | 172° |
| 2026-05-06 07:52 | -31.60634 | 150.69687 | 36115 ft | 526 kts | 172° |
| 2026-05-06 07:52 | -31.63811 | 150.70678 | 35505 ft | 525 kts | 171° |
| 2026-05-06 07:52 | -31.65807 | 150.71301 | 35200 ft | 523 kts | 171° |
| 2026-05-06 07:53 | -31.69310 | 150.72396 | 34670 ft | 519 kts | 171° |
| 2026-05-06 07:53 | -31.72792 | 150.73486 | 34157 ft | 515 kts | 171° |
| 2026-05-06 07:53 | -31.76250 | 150.74568 | 33588 ft | 511 kts | 171° |
| 2026-05-06 07:53 | -31.79668 | 150.75640 | 33068 ft | 506 kts | 171° |
| 2026-05-06 07:54 | -31.83014 | 150.76689 | 32560 ft | 501 kts | 171° |
| 2026-05-06 07:54 | -31.86364 | 150.77741 | 32063 ft | 496 kts | 171° |
| 2026-05-06 07:54 | -31.89663 | 150.78775 | 31580 ft | 491 kts | 171° |
| 2026-05-06 07:54 | -31.92852 | 150.79774 | 31108 ft | 487 kts | 171° |
| 2026-05-06 07:55 | -31.96012 | 150.80767 | 30637 ft | 483 kts | 171° |
| 2026-05-06 07:55 | -31.99250 | 150.81785 | 30147 ft | 479 kts | 172° |
| 2026-05-06 07:55 | -32.02462 | 150.82775 | 29609 ft | 473 kts | 173° |
| 2026-05-06 07:55 | -32.05669 | 150.83474 | 29087 ft | 465 kts | 177° |
| 2026-05-06 07:56 | -32.08839 | 150.84077 | 28608 ft | 459 kts | 178° |
| 2026-05-06 07:56 | -32.11977 | 150.84637 | 28142 ft | 453 kts | 178° |
| 2026-05-06 07:56 | -32.15081 | 150.85174 | 27688 ft | 448 kts | 178° |
| 2026-05-06 07:56 | -32.18143 | 150.85699 | 27223 ft | 444 kts | 178° |
| 2026-05-06 07:57 | -32.21208 | 150.86225 | 26752 ft | 440 kts | 178° |
| 2026-05-06 07:57 | -32.24219 | 150.86745 | 26291 ft | 437 kts | 177° |
| 2026-05-06 07:57 | -32.26586 | 150.87157 | 25925 ft | 434 kts | 177° |
| 2026-05-06 07:57 | -32.29691 | 150.87699 | 25440 ft | 430 kts | 177° |
| 2026-05-06 07:58 | -32.32642 | 150.88217 | 24989 ft | 426 kts | 176° |
| 2026-05-06 07:58 | -32.35563 | 150.88730 | 24529 ft | 423 kts | 176° |
| 2026-05-06 07:58 | -32.38479 | 150.89242 | 24069 ft | 420 kts | 176° |
| 2026-05-06 07:58 | -32.41358 | 150.89749 | 23590 ft | 417 kts | 176° |
| 2026-05-06 07:59 | -32.44221 | 150.90254 | 23091 ft | 413 kts | 176° |
| 2026-05-06 07:59 | -32.47049 | 150.90754 | 22617 ft | 409 kts | 175° |
| 2026-05-06 07:59 | -32.49849 | 150.91249 | 22167 ft | 405 kts | 175° |
| 2026-05-06 07:59 | -32.52590 | 150.91742 | 21698 ft | 401 kts | 175° |
| 2026-05-06 08:00 | -32.55334 | 150.92230 | 21242 ft | 398 kts | 175° |
| 2026-05-06 08:00 | -32.58067 | 150.92711 | 20793 ft | 395 kts | 175° |
| 2026-05-06 08:00 | -32.60777 | 150.93186 | 20341 ft | 392 kts | 175° |
| 2026-05-06 08:00 | -32.63166 | 150.93606 | 19939 ft | 389 kts | 175° |
| 2026-05-06 08:01 | -32.65776 | 150.94065 | 19518 ft | 387 kts | 174° |
| 2026-05-06 08:01 | -32.68430 | 150.94534 | 19060 ft | 384 kts | 174° |
| 2026-05-06 08:01 | -32.71066 | 150.95000 | 18611 ft | 381 kts | 174° |
| 2026-05-06 08:01 | -32.73668 | 150.95462 | 18150 ft | 378 kts | 174° |
| 2026-05-06 08:02 | -32.76264 | 150.95924 | 17684 ft | 374 kts | 174° |
| 2026-05-06 08:02 | -32.78832 | 150.96382 | 17246 ft | 371 kts | 174° |
| 2026-05-06 08:02 | -32.81372 | 150.96840 | 16804 ft | 368 kts | 174° |
| 2026-05-06 08:02 | -32.83902 | 150.97289 | 16376 ft | 365 kts | 174° |
| 2026-05-06 08:03 | -32.86380 | 150.97727 | 15949 ft | 363 kts | 174° |
| 2026-05-06 08:03 | -32.88867 | 150.98168 | 15530 ft | 360 kts | 173° |
| 2026-05-06 08:03 | -32.91344 | 150.98609 | 15105 ft | 358 kts | 174° |
| 2026-05-06 08:03 | -32.93800 | 150.99046 | 14684 ft | 356 kts | 174° |
| 2026-05-06 08:04 | -32.96243 | 150.99481 | 14261 ft | 354 kts | 174° |
| 2026-05-06 08:04 | -32.98679 | 150.99915 | 13838 ft | 352 kts | 174° |
| 2026-05-06 08:04 | -33.01093 | 151.00346 | 13389 ft | 349 kts | 174° |
| 2026-05-06 08:04 | -33.03486 | 151.00774 | 12966 ft | 346 kts | 174° |
| 2026-05-06 08:05 | -33.05856 | 151.01199 | 12561 ft | 343 kts | 174° |
| 2026-05-06 08:05 | -33.08180 | 151.01614 | 12157 ft | 340 kts | 174° |
| 2026-05-06 08:05 | -33.10506 | 151.02031 | 11750 ft | 337 kts | 174° |
| 2026-05-06 08:05 | -33.12816 | 151.02444 | 11351 ft | 334 kts | 174° |
| 2026-05-06 08:06 | -33.15105 | 151.02854 | 10942 ft | 331 kts | 174° |
| 2026-05-06 08:06 | -33.17380 | 151.03262 | 10509 ft | 330 kts | 174° |
| 2026-05-06 08:06 | -33.19633 | 151.03666 | 10244 ft | 322 kts | 174° |
| 2026-05-06 08:06 | -33.21803 | 151.04058 | 10117 ft | 309 kts | 174° |
| 2026-05-06 08:07 | -33.23889 | 151.04436 | 9989 ft | 297 kts | 174° |
| 2026-05-06 08:07 | -33.25904 | 151.04815 | 9694 ft | 298 kts | 174° |
| 2026-05-06 08:07 | -33.27956 | 151.05207 | 9354 ft | 300 kts | 174° |
| 2026-05-06 08:07 | -33.30011 | 151.05601 | 9043 ft | 298 kts | 174° |
| 2026-05-06 08:08 | -33.32064 | 151.05994 | 8712 ft | 296 kts | 174° |
| 2026-05-06 08:08 | -33.34096 | 151.06384 | 8390 ft | 295 kts | 174° |
| 2026-05-06 08:08 | -33.36114 | 151.06761 | 8091 ft | 292 kts | 175° |
| 2026-05-06 08:08 | -33.38106 | 151.06913 | 7850 ft | 289 kts | 182° |
| 2026-05-06 08:09 | -33.40119 | 151.06938 | 7428 ft | 289 kts | 182° |
| 2026-05-06 08:09 | -33.42122 | 151.06947 | 7036 ft | 286 kts | 182° |
| 2026-05-06 08:09 | -33.44108 | 151.06958 | 6682 ft | 283 kts | 182° |
| 2026-05-06 08:09 | -33.46061 | 151.06971 | 6326 ft | 279 kts | 182° |
| 2026-05-06 08:10 | -33.48002 | 151.06986 | 5976 ft | 277 kts | 182° |
| 2026-05-06 08:10 | -33.49920 | 151.07001 | 5640 ft | 277 kts | 182° |
| 2026-05-06 08:10 | -33.51850 | 151.07016 | 5300 ft | 276 kts | 182° |
| 2026-05-06 08:10 | -33.53764 | 151.07104 | 4952 ft | 276 kts | 175° |
| 2026-05-06 08:11 | -33.55659 | 151.07504 | 4614 ft | 276 kts | 170° |
| 2026-05-06 08:11 | -33.57530 | 151.07993 | 4337 ft | 274 kts | 169° |
| 2026-05-06 08:11 | -33.59398 | 151.08483 | 4191 ft | 275 kts | 169° |
| 2026-05-06 08:11 | -33.61241 | 151.08964 | 4043 ft | 274 kts | 169° |
| 2026-05-06 08:12 | -33.63113 | 151.09448 | 3897 ft | 274 kts | 169° |
| 2026-05-06 08:12 | -33.64969 | 151.09925 | 3775 ft | 273 kts | 169° |
| 2026-05-06 08:12 | -33.66734 | 151.10377 | 3657 ft | 272 kts | 169° |
| 2026-05-06 08:12 | -33.68566 | 151.10846 | 3539 ft | 267 kts | 169° |
| 2026-05-06 08:13 | -33.69463 | 151.11075 | 3475 ft | 262 kts | 169° |
| 2026-05-06 08:13 | -33.70288 | 151.11286 | 3407 ft | 257 kts | 169° |
| 2026-05-06 08:13 | -33.71276 | 151.11539 | 3318 ft | 252 kts | 169° |
| 2026-05-06 08:13 | -33.72985 | 151.11977 | 3175 ft | 243 kts | 169° |
| 2026-05-06 08:14 | -33.74599 | 151.12393 | 3028 ft | 232 kts | 169° |
| 2026-05-06 08:14 | -33.76128 | 151.12790 | 2989 ft | 217 kts | 169° |
| 2026-05-06 08:14 | -33.77552 | 151.13161 | 2996 ft | 203 kts | 169° |
| 2026-05-06 08:14 | -33.78925 | 151.13519 | 2884 ft | 201 kts | 169° |
| 2026-05-06 08:15 | -33.80275 | 151.13871 | 2616 ft | 200 kts | 168° |
| 2026-05-06 08:15 | -33.81631 | 151.14222 | 2348 ft | 193 kts | 168° |
| 2026-05-06 08:15 | -33.82900 | 151.14549 | 2081 ft | 183 kts | 167° |
| 2026-05-06 08:15 | -33.84112 | 151.14864 | 1842 ft | 173 kts | 166° |
| 2026-05-06 08:16 | -33.85251 | 151.15160 | 1629 ft | 163 kts | 166° |
| 2026-05-06 08:16 | -33.86201 | 151.15407 | 1424 ft | 156 kts | 167° |
| 2026-05-06 08:16 | -33.87231 | 151.15674 | 1223 ft | 148 kts | 166° |
| 2026-05-06 08:16 | -33.88212 | 151.15929 | 1036 ft | 141 kts | 166° |
| 2026-05-06 08:17 | -33.89175 | 151.16180 | 835 ft | 141 kts | 166° |
| 2026-05-06 08:17 | -33.90115 | 151.16422 | 678 ft | 141 kts | 165° |
| 2026-05-06 08:17 | -33.91070 | 151.16658 | 465 ft | 140 kts | 165° |
| 2026-05-06 08:17 | -33.91987 | 151.16910 | 244 ft | 137 kts | 164° |
| 2026-05-06 08:18 | -33.92897 | 151.17150 | 99 ft | 141 kts | 165° |
| 2026-05-06 08:18 | -33.93806 | 151.17383 | 33 ft | 123 kts | 167° |
| 2026-05-06 08:18 | -33.94480 | 151.17560 | 36 ft | 75 kts | 168° |
| 2026-05-06 08:18 | -33.94842 | 151.17643 | 35 ft | 39 kts | 174° |
| 2026-05-06 08:19 | -33.95087 | 151.17629 | 34 ft | 23 kts | 192° |
| 2026-05-06 08:19 | -33.95145 | 151.17576 | 35 ft | 10 kts | 252° |
| 2026-05-06 08:19 | -33.95114 | 151.17522 | 36 ft | 9 kts | 334° |
| 2026-05-06 08:19 | -33.95048 | 151.17502 | 36 ft | 11 kts | 347° |
| 2026-05-06 08:20 | -33.94966 | 151.17480 | 36 ft | 14 kts | 348° |
| 2026-05-06 08:20 | -33.94864 | 151.17455 | 36 ft | 16 kts | 348° |
| 2026-05-06 08:20 | -33.94745 | 151.17425 | 36 ft | 18 kts | 348° |
| 2026-05-06 08:20 | -33.94612 | 151.17391 | 36 ft | 21 kts | 348° |
| 2026-05-06 08:21 | -33.94561 | 151.17372 | 35 ft | 0 kts | 313° |
| 2026-05-06 08:21 | -33.94550 | 151.17365 | 36 ft | 4 kts | 335° |
| 2026-05-06 08:21 | -33.94508 | 151.17358 | 37 ft | 8 kts | 353° |
| 2026-05-06 08:21 | -33.94444 | 151.17346 | 37 ft | 11 kts | 349° |
| 2026-05-06 08:22 | -33.94360 | 151.17325 | 37 ft | 14 kts | 347° |
| 2026-05-06 08:22 | -33.94258 | 151.17299 | 36 ft | 17 kts | 348° |
| 2026-05-06 08:22 | -33.94139 | 151.17268 | 35 ft | 20 kts | 348° |
| 2026-05-06 08:22 | -33.94031 | 151.17240 | 35 ft | 13 kts | 348° |
| 2026-05-06 08:23 | -33.93982 | 151.17202 | 35 ft | 8 kts | 286° |
| 2026-05-06 08:23 | -33.93991 | 151.17132 | 36 ft | 10 kts | 252° |
| 2026-05-06 08:23 | -33.94015 | 151.17039 | 36 ft | 13 kts | 253° |
| 2026-05-06 08:23 | -33.94044 | 151.16917 | 36 ft | 17 kts | 253° |
| 2026-05-06 08:24 | -33.94076 | 151.16779 | 36 ft | 15 kts | 253° |
| 2026-05-06 08:24 | -33.94098 | 151.16684 | 35 ft | 10 kts | 261° |
| 2026-05-06 08:24 | -33.94070 | 151.16635 | 36 ft | 7 kts | 335° |
| 2026-05-06 08:24 | -33.94027 | 151.16621 | 36 ft | 5 kts | 344° |
| 2026-05-06 08:25 | -33.94013 | 151.16616 | 36 ft | 0 kts | 344° |